createdAt,value
2019-03-27T00:01:14.632Z,99.90
2019-03-27T00:03:46.117Z,99.90
2019-03-27T00:06:16.816Z,99.90
2019-03-27T00:08:48.410Z,99.90
2019-03-27T00:11:20.025Z,99.90
2019-03-27T00:13:51.398Z,99.90
2019-03-27T00:16:23.364Z,99.90
2019-03-27T00:18:54.969Z,99.90
2019-03-27T00:21:26.480Z,99.90
2019-03-27T00:23:58.242Z,99.90
2019-03-27T00:26:29.534Z,99.90
2019-03-27T00:29:01.765Z,99.90
2019-03-27T00:31:33.314Z,99.90
2019-03-27T00:34:05.286Z,99.90
2019-03-27T00:36:36.854Z,99.90
2019-03-27T00:39:08.612Z,99.90
2019-03-27T00:41:39.550Z,99.90
2019-03-27T00:44:10.908Z,99.90
2019-03-27T00:46:42.467Z,99.90
2019-03-27T00:49:13.812Z,99.90
2019-03-27T00:51:45.368Z,99.90
2019-03-27T00:54:16.330Z,99.90
2019-03-27T00:56:47.454Z,99.90
2019-03-27T00:59:19.347Z,99.90
2019-03-27T01:01:50.793Z,99.90
2019-03-27T01:04:22.134Z,99.90
2019-03-27T01:06:53.268Z,99.90
2019-03-27T01:09:25.002Z,99.90
2019-03-27T01:11:56.220Z,99.90
2019-03-27T01:14:27.733Z,99.90
2019-03-27T01:16:58.930Z,99.90
2019-03-27T01:19:30.059Z,99.90
2019-03-27T01:22:01.839Z,99.90
2019-03-27T01:24:32.459Z,99.90
2019-03-27T01:27:03.526Z,99.90
2019-03-27T01:29:34.590Z,99.90
2019-03-27T01:32:06.598Z,99.90
2019-03-27T01:34:37.972Z,99.90
2019-03-27T01:37:09.509Z,99.90
2019-03-27T01:39:40.944Z,99.90
2019-03-27T01:42:13.042Z,99.90
2019-03-27T01:44:44.599Z,99.90
2019-03-27T01:47:15.738Z,99.90
2019-03-27T01:49:47.348Z,99.90
2019-03-27T01:52:19.884Z,99.90
2019-03-27T01:54:51.170Z,99.90
2019-03-27T01:57:22.594Z,99.90
2019-03-27T01:59:53.526Z,99.90
2019-03-27T02:02:24.670Z,99.90
2019-03-27T02:04:56.036Z,99.90
2019-03-27T02:07:27.384Z,99.90
2019-03-27T02:09:58.662Z,99.90
2019-03-27T02:12:30.096Z,99.90
2019-03-27T02:15:01.582Z,99.90
2019-03-27T02:17:33.566Z,99.90
2019-03-27T02:20:05.187Z,99.90
2019-03-27T02:22:36.348Z,99.90
2019-03-27T02:25:08.857Z,99.90
2019-03-27T02:27:40.052Z,99.90
2019-03-27T02:30:13.223Z,99.90
2019-03-27T02:32:44.196Z,99.90
2019-03-27T02:35:15.961Z,99.90
2019-03-27T02:37:47.308Z,99.90
2019-03-27T02:40:18.354Z,99.90
2019-03-27T02:42:49.855Z,99.90
2019-03-27T02:45:21.148Z,99.90
2019-03-27T02:47:51.919Z,99.90
2019-03-27T02:50:24.276Z,99.90
2019-03-27T02:52:55.434Z,99.90
2019-03-27T02:55:26.119Z,99.90
2019-03-27T02:57:58.128Z,99.90
2019-03-27T03:00:29.690Z,99.90
2019-03-27T03:03:01.136Z,99.90
2019-03-27T03:05:32.532Z,99.90
2019-03-27T03:08:04.156Z,99.90
2019-03-27T03:10:35.867Z,99.90
2019-03-27T03:13:07.064Z,99.90
2019-03-27T03:15:38.003Z,99.90
2019-03-27T03:18:09.361Z,99.90
2019-03-27T03:20:42.108Z,99.90
2019-03-27T03:23:12.884Z,99.90
2019-03-27T03:25:44.848Z,99.90
2019-03-27T03:28:16.603Z,99.90
2019-03-27T03:30:48.104Z,99.90
2019-03-27T03:33:20.169Z,99.90
2019-03-27T03:35:51.298Z,99.90
2019-03-27T03:38:22.080Z,99.90
2019-03-27T03:40:54.145Z,99.90
2019-03-27T03:43:25.749Z,99.90
2019-03-27T03:45:56.437Z,99.90
2019-03-27T03:48:28.050Z,99.90
2019-03-27T03:51:03.088Z,99.90
2019-03-27T03:53:36.082Z,99.90
2019-03-27T03:56:09.484Z,99.90
2019-03-27T03:58:42.872Z,99.90
2019-03-27T04:01:15.629Z,99.90
2019-03-27T04:03:49.062Z,99.90
2019-03-27T04:06:20.423Z,99.90
2019-03-27T04:08:51.769Z,99.90
2019-03-27T04:11:22.921Z,99.90
2019-03-27T04:13:54.886Z,99.90
2019-03-27T04:16:25.959Z,99.90
2019-03-27T04:18:57.387Z,99.90
2019-03-27T04:21:28.736Z,99.90
2019-03-27T04:24:00.087Z,99.90
2019-03-27T04:26:33.556Z,99.90
2019-03-27T04:29:04.798Z,99.90
2019-03-27T04:31:35.993Z,99.90
2019-03-27T04:34:07.529Z,99.90
2019-03-27T04:36:38.658Z,99.90
2019-03-27T04:39:10.055Z,99.90
2019-03-27T04:41:41.399Z,99.90
2019-03-27T04:44:12.748Z,99.90
2019-03-27T04:46:44.111Z,99.90
2019-03-27T04:49:15.661Z,99.90
2019-03-27T04:51:46.942Z,99.90
2019-03-27T04:54:18.570Z,99.90
2019-03-27T04:56:50.946Z,99.90
2019-03-27T04:59:22.182Z,99.90
2019-03-27T05:01:53.746Z,99.90
2019-03-27T05:04:25.826Z,99.90
2019-03-27T05:06:57.376Z,99.90
2019-03-27T05:09:28.702Z,99.90
2019-03-27T05:12:00.289Z,99.90
2019-03-27T05:14:31.857Z,99.90
2019-03-27T05:17:03.407Z,99.90
2019-03-27T05:19:35.077Z,99.90
2019-03-27T05:22:06.730Z,99.90
2019-03-27T05:24:38.285Z,99.90
2019-03-27T05:27:09.842Z,99.90
2019-03-27T05:29:41.138Z,99.90
2019-03-27T05:32:12.266Z,99.90
2019-03-27T05:34:43.694Z,99.90
2019-03-27T05:37:14.974Z,99.90
2019-03-27T05:39:46.342Z,99.90
2019-03-27T05:42:17.760Z,99.90
2019-03-27T05:44:49.525Z,99.90
2019-03-27T05:47:20.852Z,99.90
2019-03-27T05:49:54.078Z,99.90
2019-03-27T05:52:25.350Z,99.90
2019-03-27T05:54:57.190Z,99.90
2019-03-27T05:57:28.505Z,99.90
2019-03-27T05:59:59.848Z,99.90
2019-03-27T06:02:31.442Z,99.90
2019-03-27T06:05:02.750Z,99.90
2019-03-27T06:07:33.824Z,99.90
2019-03-27T06:10:07.115Z,99.90
2019-03-27T06:12:39.302Z,99.90
2019-03-27T06:15:11.077Z,99.90
2019-03-27T06:17:41.881Z,99.90
2019-03-27T06:20:13.576Z,99.90
2019-03-27T06:22:44.920Z,99.90
2019-03-27T06:25:16.649Z,99.90
2019-03-27T06:27:48.444Z,99.90
2019-03-27T06:30:19.592Z,99.90
2019-03-27T06:32:50.158Z,99.90
2019-03-27T06:35:21.441Z,99.90
2019-03-27T06:37:52.625Z,99.90
2019-03-27T06:40:26.567Z,99.90
2019-03-27T06:42:57.355Z,99.90
2019-03-27T06:45:28.531Z,99.90
2019-03-27T06:47:59.673Z,99.90
2019-03-27T06:50:30.883Z,99.90
2019-03-27T06:53:02.519Z,99.90
2019-03-27T06:55:33.935Z,99.90
2019-03-27T06:58:05.913Z,99.90
2019-03-27T07:00:38.233Z,99.90
2019-03-27T07:03:09.577Z,99.90
2019-03-27T07:05:40.403Z,99.90
2019-03-27T07:08:11.352Z,99.90
2019-03-27T07:10:43.295Z,99.90
2019-03-27T07:13:14.439Z,99.90
2019-03-27T07:15:45.325Z,99.90
2019-03-27T07:18:16.469Z,99.90
2019-03-27T07:20:47.430Z,99.90
2019-03-27T07:23:18.525Z,99.90
2019-03-27T07:25:49.683Z,99.90
2019-03-27T07:28:21.739Z,99.90
2019-03-27T07:30:53.510Z,99.90
2019-03-27T07:33:24.439Z,99.90
2019-03-27T07:35:55.539Z,99.90
2019-03-27T07:38:26.531Z,99.90
2019-03-27T07:40:57.467Z,99.90
2019-03-27T07:43:29.244Z,99.90
2019-03-27T07:46:00.437Z,99.90
2019-03-27T07:48:31.507Z,99.90
2019-03-27T07:51:03.292Z,99.90
2019-03-27T07:53:33.984Z,99.90
2019-03-27T07:56:05.024Z,99.90
2019-03-27T07:58:36.337Z,99.90
2019-03-27T08:01:07.905Z,99.90
2019-03-27T08:03:39.041Z,99.90
2019-03-27T08:06:10.222Z,99.90
2019-03-27T08:08:41.480Z,99.90
2019-03-27T08:11:13.076Z,99.90
2019-03-27T08:13:44.036Z,99.90
2019-03-27T08:16:15.043Z,99.90
2019-03-27T08:18:46.602Z,99.40
2019-03-27T08:21:17.887Z,98.70
2019-03-27T08:23:49.244Z,96.50
2019-03-27T08:26:20.805Z,95.80
2019-03-27T08:28:51.702Z,96.70
2019-03-27T08:31:23.170Z,97.10
2019-03-27T08:33:54.864Z,97.30
2019-03-27T08:36:26.622Z,96.60
2019-03-27T08:39:05.730Z,95.90
2019-03-27T08:41:39.074Z,96.10
2019-03-27T08:44:09.742Z,97.30
2019-03-27T08:46:41.079Z,96.00
2019-03-27T08:49:21.696Z,95.20
2019-03-27T08:51:46.826Z,94.50
2019-03-27T08:54:18.236Z,93.70
2019-03-27T08:56:49.540Z,93.80
2019-03-27T08:59:20.941Z,94.80
2019-03-27T09:01:52.450Z,95.30
2019-03-27T09:04:24.272Z,94.40
2019-03-27T09:06:55.549Z,92.40
2019-03-27T09:09:27.112Z,90.20
2019-03-27T09:11:58.667Z,84.70
2019-03-27T09:14:30.216Z,79.80
2019-03-27T09:17:02.072Z,72.20
2019-03-27T09:19:36.046Z,68.70
2019-03-27T09:22:07.152Z,69.10
2019-03-27T09:24:38.041Z,70.20
2019-03-27T09:27:09.868Z,70.20
2019-03-27T09:29:40.224Z,71.50
2019-03-27T09:32:11.026Z,72.70
2019-03-27T09:34:42.457Z,74.00
2019-03-27T09:37:14.283Z,75.20
2019-03-27T09:39:46.660Z,75.90
2019-03-27T09:42:18.405Z,77.00
2019-03-27T09:44:49.887Z,78.70
2019-03-27T09:47:21.295Z,81.20
2019-03-27T09:49:52.995Z,82.70
2019-03-27T09:52:24.154Z,82.40
2019-03-27T09:54:55.382Z,83.10
2019-03-27T09:57:26.093Z,84.40
2019-03-27T09:59:56.835Z,85.00
2019-03-27T10:02:28.651Z,85.20
2019-03-27T10:05:00.017Z,85.30
2019-03-27T10:07:31.722Z,85.60
2019-03-27T10:10:02.864Z,85.10
2019-03-27T10:12:34.007Z,84.80
2019-03-27T10:15:05.373Z,84.70
2019-03-27T10:17:36.713Z,83.20
2019-03-27T10:20:08.883Z,81.80
2019-03-27T10:22:40.685Z,82.10
2019-03-27T10:25:12.426Z,82.60
2019-03-27T10:27:43.917Z,82.20
2019-03-27T10:30:15.932Z,80.80
2019-03-27T10:32:47.233Z,78.70
2019-03-27T10:35:19.178Z,77.90
2019-03-27T10:37:51.024Z,73.00
2019-03-27T10:40:22.019Z,69.60
2019-03-27T10:42:52.847Z,65.40
2019-03-27T10:45:24.871Z,58.90
2019-03-27T10:47:56.424Z,57.40
2019-03-27T10:50:27.778Z,58.50
2019-03-27T10:52:58.709Z,58.90
2019-03-27T10:55:29.869Z,59.20
2019-03-27T10:58:00.615Z,59.80
2019-03-27T11:00:34.014Z,60.60
2019-03-27T11:03:05.582Z,61.10
2019-03-27T11:05:36.645Z,62.00
2019-03-27T11:08:11.433Z,63.60
2019-03-27T11:10:41.603Z,63.90
2019-03-27T11:13:12.615Z,63.80
2019-03-27T11:15:43.367Z,64.60
2019-03-27T11:18:14.919Z,65.60
2019-03-27T11:20:45.805Z,66.40
2019-03-27T11:23:17.619Z,67.10
2019-03-27T11:25:48.701Z,68.00
2019-03-27T11:28:20.125Z,67.40
2019-03-27T11:30:51.283Z,67.50
2019-03-27T11:33:22.244Z,68.00
2019-03-27T11:35:53.342Z,68.30
2019-03-27T11:38:25.332Z,68.90
2019-03-27T11:40:56.332Z,69.70
2019-03-27T11:43:28.229Z,70.30
2019-03-27T11:45:59.809Z,70.60
2019-03-27T11:48:31.356Z,70.50
2019-03-27T11:51:02.707Z,70.60
2019-03-27T11:53:34.469Z,69.70
2019-03-27T11:56:05.822Z,69.50
2019-03-27T11:58:37.378Z,68.90
2019-03-27T12:01:08.901Z,67.70
2019-03-27T12:03:40.239Z,66.70
2019-03-27T12:06:11.604Z,66.50
2019-03-27T12:08:44.446Z,66.50
2019-03-27T12:11:15.143Z,66.70
2019-03-27T12:13:45.550Z,64.10
2019-03-27T12:16:16.779Z,63.70
2019-03-27T12:18:48.278Z,61.70
2019-03-27T12:21:18.843Z,60.60
2019-03-27T12:23:49.875Z,60.50
2019-03-27T12:26:21.846Z,59.60
2019-03-27T12:28:52.488Z,59.00
2019-03-27T12:31:23.273Z,58.80
2019-03-27T12:33:55.072Z,59.20
2019-03-27T12:36:26.440Z,59.60
2019-03-27T12:38:57.978Z,60.00
2019-03-27T12:41:29.339Z,59.70
2019-03-27T12:44:02.567Z,59.50
2019-03-27T12:46:33.844Z,60.00
2019-03-27T12:49:05.266Z,60.60
2019-03-27T12:51:36.606Z,61.30
2019-03-27T12:54:07.448Z,62.30
2019-03-27T12:56:38.506Z,63.20
2019-03-27T12:59:09.371Z,63.70
2019-03-27T13:01:40.594Z,63.80
2019-03-27T13:04:12.148Z,64.20
2019-03-27T13:06:43.196Z,64.80
2019-03-27T13:09:14.098Z,65.10
2019-03-27T13:11:45.790Z,65.50
2019-03-27T13:14:17.769Z,65.60
2019-03-27T13:16:52.214Z,65.60
2019-03-27T13:19:22.840Z,64.70
2019-03-27T13:21:54.142Z,65.00
2019-03-27T13:24:25.425Z,64.90
2019-03-27T13:26:56.320Z,66.00
2019-03-27T13:29:27.543Z,65.60
2019-03-27T13:31:58.877Z,64.10
2019-03-27T13:34:29.963Z,62.90
2019-03-27T13:37:01.378Z,61.00
2019-03-27T13:39:32.764Z,61.40
2019-03-27T13:42:03.825Z,61.80
2019-03-27T13:44:37.238Z,61.90
2019-03-27T13:47:09.140Z,62.00
2019-03-27T13:49:41.464Z,62.30
2019-03-27T13:52:13.171Z,62.60
2019-03-27T13:54:44.949Z,62.50
2019-03-27T13:57:16.283Z,62.10
2019-03-27T13:59:47.809Z,62.20
2019-03-27T14:02:19.381Z,59.60
2019-03-27T14:04:50.293Z,59.70
2019-03-27T14:07:21.895Z,60.30
2019-03-27T14:09:53.255Z,61.70
2019-03-27T14:12:25.010Z,60.60
2019-03-27T14:14:57.056Z,59.90
2019-03-27T14:17:28.278Z,60.00
2019-03-27T14:19:59.904Z,59.80
2019-03-27T14:22:31.245Z,59.30
2019-03-27T14:25:02.589Z,59.70
2019-03-27T14:27:33.951Z,60.00
2019-03-27T14:30:07.123Z,61.00
2019-03-27T14:32:38.578Z,61.30
2019-03-27T14:35:12.079Z,60.90
2019-03-27T14:37:43.411Z,60.40
2019-03-27T14:40:14.655Z,60.20
2019-03-27T14:42:46.175Z,60.40
2019-03-27T14:45:17.930Z,59.30
2019-03-27T14:47:49.469Z,57.20
2019-03-27T14:50:20.800Z,55.30
2019-03-27T14:52:51.945Z,54.30
2019-03-27T14:55:23.343Z,52.70
2019-03-27T14:57:54.565Z,50.90
2019-03-27T15:00:25.890Z,49.30
2019-03-27T15:02:56.817Z,49.30
2019-03-27T15:05:28.539Z,48.70
2019-03-27T15:07:59.642Z,48.00
2019-03-27T15:10:31.189Z,48.10
2019-03-27T15:13:02.559Z,48.60
2019-03-27T15:15:34.784Z,49.10
2019-03-27T15:18:06.018Z,49.50
2019-03-27T15:20:37.897Z,49.90
2019-03-27T15:23:08.991Z,49.20
2019-03-27T15:25:40.154Z,48.80
2019-03-27T15:28:11.386Z,47.20
2019-03-27T15:30:43.101Z,47.80
2019-03-27T15:33:14.252Z,48.00
2019-03-27T15:35:44.803Z,48.60
2019-03-27T15:38:15.739Z,49.40
2019-03-27T15:40:48.717Z,49.60
2019-03-27T15:43:21.507Z,50.40
2019-03-27T15:45:52.448Z,50.70
2019-03-27T15:48:23.549Z,51.60
2019-03-27T15:50:58.733Z,51.90
2019-03-27T15:53:28.353Z,53.10
2019-03-27T15:55:59.439Z,54.40
2019-03-27T15:58:31.053Z,53.90
2019-03-27T16:01:02.521Z,54.30
2019-03-27T16:03:33.784Z,54.40
2019-03-27T16:06:04.777Z,54.40
2019-03-27T16:08:36.027Z,55.00
2019-03-27T16:11:07.414Z,55.20
2019-03-27T16:13:38.499Z,55.20
2019-03-27T16:16:09.794Z,55.70
2019-03-27T16:18:41.019Z,56.20
2019-03-27T16:21:12.627Z,56.60
2019-03-27T16:23:43.968Z,56.90
2019-03-27T16:26:15.164Z,57.00
2019-03-27T16:28:46.342Z,57.10
2019-03-27T16:31:18.029Z,57.60
2019-03-27T16:33:48.982Z,57.70
2019-03-27T16:36:21.760Z,57.40
2019-03-27T16:38:53.244Z,57.60
2019-03-27T16:41:24.886Z,58.10
2019-03-27T16:43:55.558Z,58.00
2019-03-27T16:46:26.546Z,58.50
2019-03-27T16:48:57.726Z,58.00
2019-03-27T16:51:28.442Z,58.50
2019-03-27T16:53:59.684Z,58.60
2019-03-27T16:56:30.534Z,58.70
2019-03-27T16:59:01.742Z,58.80
2019-03-27T17:01:36.030Z,59.20
2019-03-27T17:04:07.824Z,59.60
2019-03-27T17:06:39.266Z,59.80
2019-03-27T17:09:10.533Z,60.20
2019-03-27T17:11:42.348Z,60.10
2019-03-27T17:14:13.930Z,60.00
2019-03-27T17:16:45.389Z,60.10
2019-03-27T17:19:17.018Z,60.10
2019-03-27T17:21:48.284Z,60.30
2019-03-27T17:24:19.174Z,61.20
2019-03-27T17:26:50.240Z,62.10
2019-03-27T17:29:21.397Z,62.70
2019-03-27T17:31:52.673Z,63.10
2019-03-27T17:34:24.523Z,63.10
2019-03-27T17:36:55.870Z,63.50
2019-03-27T17:39:27.193Z,64.60
2019-03-27T17:41:58.738Z,64.80
2019-03-27T17:44:30.326Z,64.90
2019-03-27T17:47:01.087Z,65.20
2019-03-27T17:49:32.863Z,65.40
2019-03-27T17:52:04.942Z,65.70
2019-03-27T17:54:36.146Z,66.50
2019-03-27T17:57:06.578Z,66.10
2019-03-27T17:59:38.339Z,66.40
2019-03-27T18:02:09.950Z,66.80
2019-03-27T18:04:41.138Z,66.80
2019-03-27T18:07:12.508Z,67.20
2019-03-27T18:09:43.911Z,67.50
2019-03-27T18:12:15.558Z,67.80
2019-03-27T18:14:46.660Z,68.00
2019-03-27T18:17:17.921Z,68.20
2019-03-27T18:19:49.560Z,68.60
2019-03-27T18:22:20.843Z,68.80
2019-03-27T18:24:52.206Z,69.40
2019-03-27T18:27:23.462Z,69.70
2019-03-27T18:29:55.336Z,70.20
2019-03-27T18:32:26.835Z,70.80
2019-03-27T18:34:58.149Z,71.20
2019-03-27T18:37:29.152Z,71.40
2019-03-27T18:40:00.358Z,71.60
2019-03-27T18:42:32.063Z,71.80
2019-03-27T18:45:03.227Z,72.40
2019-03-27T18:47:34.784Z,73.00
2019-03-27T18:50:06.748Z,73.10
2019-03-27T18:52:40.755Z,72.90
2019-03-27T18:55:25.493Z,72.80
2019-03-27T18:57:59.473Z,72.70
2019-03-27T19:00:20.784Z,73.90
2019-03-27T19:02:52.308Z,74.20
2019-03-27T19:05:23.317Z,74.90
2019-03-27T19:07:54.129Z,75.40
2019-03-27T19:10:25.261Z,75.50
2019-03-27T19:12:56.165Z,75.60
2019-03-27T19:15:27.623Z,75.70
2019-03-27T19:17:58.582Z,75.80
2019-03-27T19:20:29.851Z,76.00
2019-03-27T19:23:01.700Z,76.10
2019-03-27T19:25:33.051Z,76.40
2019-03-27T19:28:03.877Z,76.60
2019-03-27T19:30:35.345Z,76.80
2019-03-27T19:33:06.381Z,77.00
2019-03-27T19:35:37.853Z,77.70
2019-03-27T19:38:09.345Z,78.30
2019-03-27T19:40:41.991Z,78.60
2019-03-27T19:43:12.781Z,78.80
2019-03-27T19:45:45.125Z,79.30
2019-03-27T19:48:16.495Z,79.80
2019-03-27T19:50:49.659Z,80.30
2019-03-27T19:53:20.663Z,81.10
2019-03-27T19:55:52.991Z,81.40
2019-03-27T19:58:23.927Z,82.00
2019-03-27T20:00:56.097Z,83.50
2019-03-27T20:03:28.261Z,83.00
2019-03-27T20:05:59.982Z,83.00
2019-03-27T20:08:31.795Z,83.30
2019-03-27T20:11:03.143Z,84.00
2019-03-27T20:13:34.036Z,84.50
2019-03-27T20:16:05.649Z,84.90
2019-03-27T20:18:37.006Z,85.30
2019-03-27T20:21:08.236Z,85.90
2019-03-27T20:23:39.449Z,86.50
2019-03-27T20:26:11.051Z,87.00
2019-03-27T20:28:41.755Z,87.30
2019-03-27T20:31:12.931Z,87.90
2019-03-27T20:33:43.558Z,88.10
2019-03-27T20:36:15.121Z,88.20
2019-03-27T20:38:46.388Z,88.30
2019-03-27T20:41:17.785Z,88.30
2019-03-27T20:43:49.429Z,88.50
2019-03-27T20:46:25.504Z,88.50
2019-03-27T20:48:54.604Z,88.90
2019-03-27T20:51:25.987Z,89.00
2019-03-27T20:53:57.174Z,89.30
2019-03-27T20:56:28.721Z,89.30
2019-03-27T20:59:01.446Z,89.60
2019-03-27T21:01:33.194Z,90.00
2019-03-27T21:04:04.023Z,90.30
2019-03-27T21:06:35.725Z,90.60
2019-03-27T21:09:08.734Z,90.60
2019-03-27T21:11:41.756Z,90.80
2019-03-27T21:14:12.897Z,91.00
2019-03-27T21:16:43.536Z,91.10
2019-03-27T21:19:14.998Z,91.10
2019-03-27T21:21:46.092Z,91.20
2019-03-27T21:24:17.086Z,91.30
2019-03-27T21:26:48.656Z,91.60
2019-03-27T21:29:20.004Z,91.90
2019-03-27T21:31:51.502Z,92.10
2019-03-27T21:34:23.732Z,92.20
2019-03-27T21:36:55.284Z,92.30
2019-03-27T21:39:26.185Z,92.60
2019-03-27T21:41:57.990Z,93.00
2019-03-27T21:44:28.829Z,93.20
2019-03-27T21:46:59.668Z,93.60
2019-03-27T21:49:30.946Z,93.80
2019-03-27T21:52:03.408Z,93.80
2019-03-27T21:54:34.742Z,94.00
2019-03-27T21:57:06.106Z,94.20
2019-03-27T21:59:38.324Z,94.60
2019-03-27T22:02:11.874Z,94.90
2019-03-27T22:04:43.381Z,95.10
2019-03-27T22:07:14.808Z,95.40
2019-03-27T22:09:45.504Z,95.60
2019-03-27T22:12:16.483Z,95.80
2019-03-27T22:14:48.234Z,96.10
2019-03-27T22:17:19.794Z,96.30
2019-03-27T22:19:51.342Z,96.70
2019-03-27T22:22:22.607Z,97.00
2019-03-27T22:24:55.082Z,97.40
2019-03-27T22:27:27.258Z,97.80
2019-03-27T22:29:59.230Z,98.20
2019-03-27T22:32:30.574Z,98.60
2019-03-27T22:35:02.333Z,99.10
2019-03-27T22:37:34.512Z,99.50
2019-03-27T22:40:06.666Z,99.90
2019-03-27T22:42:37.998Z,99.90
2019-03-27T22:45:10.198Z,99.90
2019-03-27T22:47:41.740Z,99.90
2019-03-27T22:50:13.331Z,99.90
2019-03-27T22:52:45.285Z,99.90
2019-03-27T22:55:17.261Z,99.90
2019-03-27T22:57:49.430Z,99.90
2019-03-27T23:00:22.760Z,99.90
2019-03-27T23:02:56.128Z,99.90
2019-03-27T23:05:30.090Z,99.90
2019-03-27T23:08:00.785Z,99.90
2019-03-27T23:10:32.348Z,99.90
2019-03-27T23:13:04.103Z,99.90
2019-03-27T23:15:35.167Z,99.90
2019-03-27T23:18:06.852Z,99.90
2019-03-27T23:20:38.293Z,99.90
2019-03-27T23:23:09.070Z,99.90
2019-03-27T23:25:40.601Z,99.90
2019-03-27T23:28:11.579Z,99.90
2019-03-27T23:30:42.128Z,99.90
2019-03-27T23:33:13.313Z,99.90
2019-03-27T23:35:44.844Z,99.90
2019-03-27T23:38:15.961Z,99.90
2019-03-27T23:40:47.757Z,99.90
2019-03-27T23:43:18.116Z,99.90
2019-03-27T23:45:50.047Z,99.90
2019-03-27T23:48:21.489Z,99.90
2019-03-27T23:50:53.305Z,99.90
2019-03-27T23:53:25.133Z,99.90
2019-03-27T23:55:56.487Z,99.90
2019-03-27T23:58:28.244Z,99.90
